»·PEaware :: AAL717 KAUS-KDFW

AAL717 :: KAUS-KDFW

FLIGHT INFORMATION

Flight Status: Arrived
Operator:
American Airlines
More flights by this operator :: More flights under this callsign
Pilot: Ty S. (2873)
Aircraft: BOEING 737-800
(B738)
More flights by this aircraft type
Origin: KAUS Austin Bergstrom Intl
United States
Destination: KDFW Dallas-Ft Worth Intl
United States
More flights between these airports :: More routes between these airports
Route: ELOEL1 FORSS GUTZZ BOOVE3
File this flight plan on PilotEdge
Remarks:
Altitude:
(Current/Filed)
29,000ft
Speed:
(Current/Filed)
450kts
Departed: 15-Apr-16 03:54 PM
Arrived: 15-Apr-16 04:38 PM
Distance/Time
Traveled:
165nm/0:44
Distance/Time
To Go:
Arrived

Flight Plot

Page will automatically refresh every two minutes.


Map Options




Map Legend


Flown Route
Filed Route
Departure Airport
Arrival Airport
Navaid (VOR, NDB)
Fix

Horizontal Profiles

Position Reports

Time Latitude Longitude Heading Altitude Ground
Speed
15-Apr-16 15:09 30.201249 -97.666733 357 550ft 0kts
15-Apr-16 15:10 30.201249 -97.666733 357 550ft 0kts
15-Apr-16 15:11 30.201249 -97.666733 357 550ft 0kts
15-Apr-16 15:12 30.201249 -97.666733 357 550ft 0kts
15-Apr-16 15:13 30.201249 -97.666733 357 550ft 0kts
15-Apr-16 15:14 30.201249 -97.666733 357 550ft 0kts
15-Apr-16 15:15 30.201249 -97.666733 357 550ft 0kts
15-Apr-16 15:16 30.201249 -97.666733 357 550ft 0kts
15-Apr-16 15:17 30.201249 -97.666733 357 550ft 0kts
15-Apr-16 15:18 30.201249 -97.666733 357 550ft 0kts
15-Apr-16 15:19 30.201249 -97.666733 357 550ft 0kts
15-Apr-16 15:20 30.201249 -97.666733 357 550ft 0kts
15-Apr-16 15:21 30.201249 -97.666733 357 550ft 0kts
15-Apr-16 15:22 30.201249 -97.666733 357 550ft 0kts
15-Apr-16 15:23 30.201249 -97.666733 357 550ft 0kts
15-Apr-16 15:24 30.201249 -97.666733 357 550ft 0kts
15-Apr-16 15:25 30.201249 -97.666733 357 550ft 0kts
15-Apr-16 15:26 30.201249 -97.666733 357 550ft 0kts
15-Apr-16 15:27 30.201249 -97.666733 357 550ft 0kts
15-Apr-16 15:28 30.201249 -97.666733 357 550ft 0kts
15-Apr-16 15:29 30.201249 -97.666733 357 550ft 0kts
15-Apr-16 15:30 30.201249 -97.666733 357 550ft 0kts
15-Apr-16 15:31 30.201249 -97.666733 357 550ft 0kts
15-Apr-16 15:32 30.201249 -97.666733 357 550ft 0kts
15-Apr-16 15:33 30.201134 -97.666726 357 550ft 3kts
15-Apr-16 15:34 30.200661 -97.666531 267 550ft 0kts
15-Apr-16 15:35 30.200661 -97.666531 267 550ft 0kts
15-Apr-16 15:36 30.200661 -97.666531 267 550ft 0kts
15-Apr-16 15:37 30.200952 -97.668811 286 550ft 7kts
15-Apr-16 15:38 30.200961 -97.671787 268 550ft 10kts
15-Apr-16 15:39 30.202385 -97.673360 357 550ft 14kts
15-Apr-16 15:40 30.205888 -97.673520 359 550ft 14kts
15-Apr-16 15:41 30.209969 -97.674510 344 550ft 14kts
15-Apr-16 15:42 30.213517 -97.676195 275 550ft 12kts
15-Apr-16 15:43 30.213438 -97.678923 271 550ft 11kts
15-Apr-16 15:44 30.213121 -97.679303 180 550ft 0kts
15-Apr-16 15:45 30.179973 -97.678376 175 1300ft 182kts
15-Apr-16 15:46 30.121017 -97.683239 193 2467ft 278kts
15-Apr-16 15:47 30.102176 -97.751346 305 5728ft 279kts
15-Apr-16 15:48 30.171321 -97.778640 354 8693ft 280kts
15-Apr-16 15:49 30.251920 -97.788526 352 10421ft 328kts
15-Apr-16 15:50 30.345719 -97.801773 351 12897ft 344kts
15-Apr-16 15:51 30.424793 -97.812643 350 14927ft 352kts
15-Apr-16 15:52 30.538719 -97.829834 349 17472ft 365kts
15-Apr-16 15:53 30.623810 -97.842596 349 19145ft 374kts
15-Apr-16 15:54 30.728403 -97.857784 348 21020ft 385kts
15-Apr-16 15:55 30.831784 -97.891544 337 22726ft 392kts
15-Apr-16 15:56 30.934001 -97.937550 330 24298ft 400kts
15-Apr-16 15:57 31.034350 -97.995673 328 25725ft 410kts
15-Apr-16 15:58 31.128798 -98.052215 328 26933ft 421kts
15-Apr-16 15:59 31.234327 -98.114173 328 28145ft 431kts
15-Apr-16 16:00 31.349745 -98.148756 0 28830ft 450kts
15-Apr-16 16:01 31.474173 -98.131971 4 28869ft 451kts
15-Apr-16 16:02 31.597450 -98.109223 2 28883ft 450kts
15-Apr-16 16:03 31.715691 -98.061455 24 28883ft 463kts
15-Apr-16 16:04 31.831159 -97.982150 28 28870ft 465kts
15-Apr-16 16:05 31.945764 -97.900758 26 26650ft 482kts
15-Apr-16 16:06 32.059139 -97.826432 25 24476ft 456kts
15-Apr-16 16:07 32.165580 -97.759124 25 22645ft 433kts
15-Apr-16 16:08 32.267980 -97.691801 25 20648ft 413kts
15-Apr-16 16:09 32.367466 -97.632870 23 19012ft 386kts
15-Apr-16 16:10 32.449325 -97.553389 41 16733ft 360kts
15-Apr-16 16:11 32.518381 -97.471380 43 15618ft 347kts
15-Apr-16 16:12 32.586251 -97.391678 41 14448ft 342kts
15-Apr-16 16:13 32.650604 -97.318933 42 13193ft 316kts
15-Apr-16 16:14 32.712612 -97.247238 43 11975ft 310kts
15-Apr-16 16:15 32.770701 -97.180514 39 11104ft 274kts
15-Apr-16 16:16 32.844538 -97.166991 359 10217ft 278kts
15-Apr-16 16:17 32.921302 -97.165677 359 8801ft 278kts
15-Apr-16 16:18 32.989481 -97.165668 359 7619ft 276kts
15-Apr-16 16:19 33.061150 -97.164985 0 6955ft 231kts
15-Apr-16 16:20 33.124669 -97.164189 2 5322ft 230kts
15-Apr-16 16:21 33.184154 -97.154061 60 3686ft 207kts
15-Apr-16 16:22 33.170800 -97.106020 149 3031ft 180kts
15-Apr-16 16:23 33.127191 -97.077041 149 2993ft 179kts
15-Apr-16 16:24 33.084173 -97.048332 148 2990ft 179kts
15-Apr-16 16:25 33.040992 -97.029356 176 3007ft 161kts
15-Apr-16 16:26 32.995940 -97.029247 176 2327ft 161kts
15-Apr-16 16:27 32.950816 -97.029719 176 1354ft 161kts
15-Apr-16 16:28 32.906860 -97.029914 176 615ft 135kts
15-Apr-16 16:29 32.891807 -97.031036 205 615ft 23kts
15-Apr-16 16:30 32.891576 -97.033250 1 615ft 13kts
15-Apr-16 16:31 32.896116 -97.033601 301 615ft 11kts
15-Apr-16 16:32 32.896401 -97.035107 280 615ft 0kts
15-Apr-16 16:33 32.896401 -97.035107 280 615ft 0kts
15-Apr-16 16:34 32.896401 -97.035107 280 615ft 0kts
15-Apr-16 16:35 32.896401 -97.035107 280 615ft 0kts
15-Apr-16 16:36 32.896401 -97.035107 280 615ft 0kts
15-Apr-16 16:37 32.896401 -97.035107 280 615ft 0kts

Navigation Log

Ident Type
1. KAUS Airport
2. KDFW Airport